Sea Hog — WDC7997 — position and weather

sailwx.info

Track history (hours):
 
Tides and Currents Weather Stations Pressure Air Temp Water Temp Dewpoint Dewpoint Depression Visibility Wind Speed Wind Dir Waves Ship Positions

Sea Hog

Owner: GARBER BROS INC., MORGAN CITY, LA. More information available from US FCC via Universal Licensing System and Coast Guard Vessel Documentation Center.

Last reported at 2017-Sep-20 17:24 UTC. Time now 2017-Sep-22 22:34 UTC.
Position N 29°27' W 090°43'.

Length 19 m; draft 3 m.

Type: Towing. MMSI: 367080090.

Date/timePositionNaut miles runAvg speedWind from/ knotsBaromVisibWave heightAir tempDewpointWater temp
2017-Sep-20 17:24N 29°27' W 090°43'3 8.7
2017-Sep-20 17:00N 29°31' W 090°43'4 7.1
2017-Sep-20 16:30N 29°34' W 090°43'2 4.1
2017-Sep-20 16:00N 29°33' W 090°45'4 0.1
2017-Sep-19 05:04N 29°32' W 090°49'1 7.4
2017-Sep-19 05:00N 29°32' W 090°48'3 6.5
2017-Sep-19 04:31N 29°33' W 090°45'2 4.7
2017-Sep-19 04:00N 29°33' W 090°42'3 6.9
2017-Sep-19 03:30N 29°30' W 090°43'  
2017-Sep-13 14:21N 29°28' W 090°43'3 9.0
2017-Sep-13 14:00N 29°31' W 090°42'3 6.6
2017-Sep-13 13:30N 29°34' W 090°43'1 1.4
2017-Sep-13 13:00N 29°35' W 090°43'2 4.2
2017-Sep-13 12:30N 29°37' W 090°41'4 7.6
2017-Sep-13 12:00N 29°35' W 090°37'4 7.8
2017-Sep-13 11:30N 29°34' W 090°33'2 0.1
2017-Sep-12 20:04N 29°35' W 090°35'0 4.9
2017-Sep-12 20:00N 29°35' W 090°36'3 6.4
2017-Sep-12 19:28N 29°36' W 090°39'3 5.8
2017-Sep-12 19:00N 29°37' W 090°42'3 5.2
2017-Sep-12 18:30N 29°34' W 090°43'2 4.0
2017-Sep-12 18:00N 29°32' W 090°42'  
Track history (hours):
 
Tides and Currents Weather Stations Pressure Air Temp Water Temp Dewpoint Dewpoint Depression Visibility Wind Speed Wind Dir Waves Ship Positions

Sea Hog

Owner: GARBER BROS INC., MORGAN CITY, LA. More information available from US FCC via Universal Licensing System and Coast Guard Vessel Documentation Center.

Last reported at 2017-Sep-20 17:24 UTC. Time now 2017-Sep-22 22:34 UTC.
Position N 29°27' W 090°43'.

Length 19 m; draft 3 m.

Type: Towing. MMSI: 367080090.

Date/timePositionNaut miles runAvg speedWind from/ knotsBaromVisibWave heightAir tempDewpointWater temp
2017-Sep-20 17:24N 29°27' W 090°43'3 8.7
2017-Sep-20 17:00N 29°31' W 090°43'4 7.1
2017-Sep-20 16:30N 29°34' W 090°43'2 4.1
2017-Sep-20 16:00N 29°33' W 090°45'4 0.1
2017-Sep-19 05:04N 29°32' W 090°49'1 7.4
2017-Sep-19 05:00N 29°32' W 090°48'3 6.5
2017-Sep-19 04:31N 29°33' W 090°45'2 4.7
2017-Sep-19 04:00N 29°33' W 090°42'3 6.9
2017-Sep-19 03:30N 29°30' W 090°43'  
2017-Sep-13 14:21N 29°28' W 090°43'3 9.0
2017-Sep-13 14:00N 29°31' W 090°42'3 6.6
2017-Sep-13 13:30N 29°34' W 090°43'1 1.4
2017-Sep-13 13:00N 29°35' W 090°43'2 4.2
2017-Sep-13 12:30N 29°37' W 090°41'4 7.6
2017-Sep-13 12:00N 29°35' W 090°37'4 7.8
2017-Sep-13 11:30N 29°34' W 090°33'2 0.1
2017-Sep-12 20:04N 29°35' W 090°35'0 4.9
2017-Sep-12 20:00N 29°35' W 090°36'3 6.4
2017-Sep-12 19:28N 29°36' W 090°39'3 5.8
2017-Sep-12 19:00N 29°37' W 090°42'3 5.2
2017-Sep-12 18:30N 29°34' W 090°43'2 4.0
2017-Sep-12 18:00N 29°32' W 090°42'  

Dump ship's entire track history